sensor_id;sensor_type;location;lat;lon;timestamp;temperature;humidity
4090;DHT22;2059;48.538;12.146;2024-01-27T00:04:10;5.30;99.90
4090;DHT22;2059;48.538;12.146;2024-01-27T00:09:13;5.40;99.90
4090;DHT22;2059;48.538;12.146;2024-01-27T00:14:15;5.20;99.90
4090;DHT22;2059;48.538;12.146;2024-01-27T00:19:17;5.10;99.90
4090;DHT22;2059;48.538;12.146;2024-01-27T00:24:20;5.20;99.90
4090;DHT22;2059;48.538;12.146;2024-01-27T00:29:21;5.10;99.90
4090;DHT22;2059;48.538;12.146;2024-01-27T00:34:23;4.80;99.90
4090;DHT22;2059;48.538;12.146;2024-01-27T00:39:27;4.90;99.90
4090;DHT22;2059;48.538;12.146;2024-01-27T00:44:28;5.00;99.90
4090;DHT22;2059;48.538;12.146;2024-01-27T00:49:30;5.00;99.90
4090;DHT22;2059;48.538;12.146;2024-01-27T00:54:33;5.00;99.90
4090;DHT22;2059;48.538;12.146;2024-01-27T00:59:35;5.00;99.90
4090;DHT22;2059;48.538;12.146;2024-01-27T01:04:37;5.00;99.90
4090;DHT22;2059;48.538;12.146;2024-01-27T01:09:40;4.80;99.90
4090;DHT22;2059;48.538;12.146;2024-01-27T01:14:42;4.40;99.90
4090;DHT22;2059;48.538;12.146;2024-01-27T01:19:44;4.50;99.90
4090;DHT22;2059;48.538;12.146;2024-01-27T01:24:47;4.50;99.90
4090;DHT22;2059;48.538;12.146;2024-01-27T01:29:49;4.40;99.90
4090;DHT22;2059;48.538;12.146;2024-01-27T01:34:50;4.50;99.90
4090;DHT22;2059;48.538;12.146;2024-01-27T01:39:53;4.40;99.90
4090;DHT22;2059;48.538;12.146;2024-01-27T01:44:55;4.50;99.90
4090;DHT22;2059;48.538;12.146;2024-01-27T01:49:58;4.40;99.90
4090;DHT22;2059;48.538;12.146;2024-01-27T01:55:01;4.10;99.90
4090;DHT22;2059;48.538;12.146;2024-01-27T02:00:04;4.10;99.90
4090;DHT22;2059;48.538;12.146;2024-01-27T02:05:06;4.00;99.90
4090;DHT22;2059;48.538;12.146;2024-01-27T02:10:15;3.60;99.90
4090;DHT22;2059;48.538;12.146;2024-01-27T02:15:17;3.50;99.90
4090;DHT22;2059;48.538;12.146;2024-01-27T02:20:19;3.50;99.90
4090;DHT22;2059;48.538;12.146;2024-01-27T02:25:22;3.50;99.90
4090;DHT22;2059;48.538;12.146;2024-01-27T02:30:24;3.60;99.90
4090;DHT22;2059;48.538;12.146;2024-01-27T02:35:26;3.40;99.90
4090;DHT22;2059;48.538;12.146;2024-01-27T02:40:29;3.70;99.90
4090;DHT22;2059;48.538;12.146;2024-01-27T02:45:31;3.50;99.90
4090;DHT22;2059;48.538;12.146;2024-01-27T02:50:32;3.30;99.90
4090;DHT22;2059;48.538;12.146;2024-01-27T02:55:35;3.20;99.90
4090;DHT22;2059;48.538;12.146;2024-01-27T03:00:37;3.20;99.90
4090;DHT22;2059;48.538;12.146;2024-01-27T03:05:39;3.20;99.90
4090;DHT22;2059;48.538;12.146;2024-01-27T03:10:42;3.10;99.90
4090;DHT22;2059;48.538;12.146;2024-01-27T03:15:44;3.20;99.90
4090;DHT22;2059;48.538;12.146;2024-01-27T03:20:45;2.90;99.90
4090;DHT22;2059;48.538;12.146;2024-01-27T03:25:49;2.60;99.90
4090;DHT22;2059;48.538;12.146;2024-01-27T03:30:50;2.90;99.90
4090;DHT22;2059;48.538;12.146;2024-01-27T03:35:52;2.80;99.90
4090;DHT22;2059;48.538;12.146;2024-01-27T03:40:55;2.90;99.90
4090;DHT22;2059;48.538;12.146;2024-01-27T03:45:59;3.10;99.90
4090;DHT22;2059;48.538;12.146;2024-01-27T03:51:01;3.00;99.90
4090;DHT22;2059;48.538;12.146;2024-01-27T03:56:05;2.80;99.90
4090;DHT22;2059;48.538;12.146;2024-01-27T04:01:06;2.80;99.90
4090;DHT22;2059;48.538;12.146;2024-01-27T04:06:08;2.60;99.90
4090;DHT22;2059;48.538;12.146;2024-01-27T04:11:18;2.60;99.90
4090;DHT22;2059;48.538;12.146;2024-01-27T04:16:20;2.80;99.90
4090;DHT22;2059;48.538;12.146;2024-01-27T04:21:22;3.10;99.90
4090;DHT22;2059;48.538;12.146;2024-01-27T04:26:26;2.90;99.90
4090;DHT22;2059;48.538;12.146;2024-01-27T04:31:28;2.90;99.90
4090;DHT22;2059;48.538;12.146;2024-01-27T04:36:31;3.00;99.90
4090;DHT22;2059;48.538;12.146;2024-01-27T04:41:34;3.00;99.90
4090;DHT22;2059;48.538;12.146;2024-01-27T04:46:36;3.10;99.90
4090;DHT22;2059;48.538;12.146;2024-01-27T04:51:38;3.00;99.90
4090;DHT22;2059;48.538;12.146;2024-01-27T04:56:41;3.00;99.90
4090;DHT22;2059;48.538;12.146;2024-01-27T05:01:44;3.00;99.90
4090;DHT22;2059;48.538;12.146;2024-01-27T05:06:46;3.10;99.90
4090;DHT22;2059;48.538;12.146;2024-01-27T05:11:49;3.20;99.90
4090;DHT22;2059;48.538;12.146;2024-01-27T05:16:53;3.00;99.90
4090;DHT22;2059;48.538;12.146;2024-01-27T05:21:55;2.90;99.90
4090;DHT22;2059;48.538;12.146;2024-01-27T05:26:58;3.10;99.90
4090;DHT22;2059;48.538;12.146;2024-01-27T05:31:59;3.00;99.90
4090;DHT22;2059;48.538;12.146;2024-01-27T05:37:01;3.00;99.90
4090;DHT22;2059;48.538;12.146;2024-01-27T05:42:04;3.00;99.90
4090;DHT22;2059;48.538;12.146;2024-01-27T05:47:07;3.00;99.90
4090;DHT22;2059;48.538;12.146;2024-01-27T05:52:11;2.90;99.90
4090;DHT22;2059;48.538;12.146;2024-01-27T05:57:14;2.70;99.90
4090;DHT22;2059;48.538;12.146;2024-01-27T06:02:16;2.70;99.90
4090;DHT22;2059;48.538;12.146;2024-01-27T06:07:18;2.90;99.90
4090;DHT22;2059;48.538;12.146;2024-01-27T06:12:21;2.70;99.90
4090;DHT22;2059;48.538;12.146;2024-01-27T06:17:24;2.90;99.90
4090;DHT22;2059;48.538;12.146;2024-01-27T06:22:25;2.80;99.90
4090;DHT22;2059;48.538;12.146;2024-01-27T06:27:29;2.40;99.90
4090;DHT22;2059;48.538;12.146;2024-01-27T06:32:30;2.80;99.90
4090;DHT22;2059;48.538;12.146;2024-01-27T06:37:32;2.60;99.90
4090;DHT22;2059;48.538;12.146;2024-01-27T06:42:35;2.60;99.90
4090;DHT22;2059;48.538;12.146;2024-01-27T06:47:37;2.90;99.90
4090;DHT22;2059;48.538;12.146;2024-01-27T06:52:39;2.60;99.90
4090;DHT22;2059;48.538;12.146;2024-01-27T06:57:42;2.40;99.90
4090;DHT22;2059;48.538;12.146;2024-01-27T07:02:44;2.10;99.90
4090;DHT22;2059;48.538;12.146;2024-01-27T07:07:45;2.20;99.90
4090;DHT22;2059;48.538;12.146;2024-01-27T07:12:49;2.40;99.90
4090;DHT22;2059;48.538;12.146;2024-01-27T07:17:51;2.30;99.90
4090;DHT22;2059;48.538;12.146;2024-01-27T07:22:52;2.60;99.90
4090;DHT22;2059;48.538;12.146;2024-01-27T07:27:55;2.50;99.90
4090;DHT22;2059;48.538;12.146;2024-01-27T07:32:57;2.40;99.90
4090;DHT22;2059;48.538;12.146;2024-01-27T07:37:59;2.60;99.90
4090;DHT22;2059;48.538;12.146;2024-01-27T07:43:02;2.80;99.90
4090;DHT22;2059;48.538;12.146;2024-01-27T07:48:05;2.90;99.90
4090;DHT22;2059;48.538;12.146;2024-01-27T07:53:07;2.90;99.90
4090;DHT22;2059;48.538;12.146;2024-01-27T07:58:10;3.10;99.90
4090;DHT22;2059;48.538;12.146;2024-01-27T08:03:12;3.20;99.90
4090;DHT22;2059;48.538;12.146;2024-01-27T08:08:14;3.50;99.90
4090;DHT22;2059;48.538;12.146;2024-01-27T08:13:18;3.40;99.90
4090;DHT22;2059;48.538;12.146;2024-01-27T08:18:20;3.40;99.90
4090;DHT22;2059;48.538;12.146;2024-01-27T08:23:23;4.00;99.90
4090;DHT22;2059;48.538;12.146;2024-01-27T08:28:26;4.20;99.90
4090;DHT22;2059;48.538;12.146;2024-01-27T08:33:28;4.50;99.90
4090;DHT22;2059;48.538;12.146;2024-01-27T08:38:30;4.60;99.90
4090;DHT22;2059;48.538;12.146;2024-01-27T08:43:33;4.70;99.90
4090;DHT22;2059;48.538;12.146;2024-01-27T08:48:34;5.00;99.90
4090;DHT22;2059;48.538;12.146;2024-01-27T08:53:36;5.00;99.90
4090;DHT22;2059;48.538;12.146;2024-01-27T08:58:39;4.90;99.90
4090;DHT22;2059;48.538;12.146;2024-01-27T09:03:41;5.10;99.90
4090;DHT22;2059;48.538;12.146;2024-01-27T09:08:43;5.20;99.90
4090;DHT22;2059;48.538;12.146;2024-01-27T09:13:47;5.70;99.80
4090;DHT22;2059;48.538;12.146;2024-01-27T09:18:49;5.20;99.90
4090;DHT22;2059;48.538;12.146;2024-01-27T09:23:51;5.90;99.90
4090;DHT22;2059;48.538;12.146;2024-01-27T09:28:54;5.90;99.60
4090;DHT22;2059;48.538;12.146;2024-01-27T09:33:56;6.20;99.20
4090;DHT22;2059;48.538;12.146;2024-01-27T09:38:58;6.70;98.40
4090;DHT22;2059;48.538;12.146;2024-01-27T09:44:03;7.40;97.10
4090;DHT22;2059;48.538;12.146;2024-01-27T09:49:05;7.40;97.50
4090;DHT22;2059;48.538;12.146;2024-01-27T09:54:08;7.50;97.00
4090;DHT22;2059;48.538;12.146;2024-01-27T09:59:11;7.10;97.30
4090;DHT22;2059;48.538;12.146;2024-01-27T10:04:15;7.10;97.70
4090;DHT22;2059;48.538;12.146;2024-01-27T10:09:17;7.10;97.20
4090;DHT22;2059;48.538;12.146;2024-01-27T10:14:20;7.10;97.20
4090;DHT22;2059;48.538;12.146;2024-01-27T10:19:23;6.60;97.40
4090;DHT22;2059;48.538;12.146;2024-01-27T10:24:24;6.80;97.70
4090;DHT22;2059;48.538;12.146;2024-01-27T10:29:27;7.20;97.00
4090;DHT22;2059;48.538;12.146;2024-01-27T10:34:29;7.60;96.70
4090;DHT22;2059;48.538;12.146;2024-01-27T10:39:31;7.50;96.70
4090;DHT22;2059;48.538;12.146;2024-01-27T10:44:35;7.90;96.90
4090;DHT22;2059;48.538;12.146;2024-01-27T10:49:41;8.40;95.90
4090;DHT22;2059;48.538;12.146;2024-01-27T10:54:45;8.30;95.50
4090;DHT22;2059;48.538;12.146;2024-01-27T10:59:49;8.20;96.20
4090;DHT22;2059;48.538;12.146;2024-01-27T11:04:52;8.90;94.80
4090;DHT22;2059;48.538;12.146;2024-01-27T11:09:55;8.80;94.50
4090;DHT22;2059;48.538;12.146;2024-01-27T11:14:58;8.80;92.80
4090;DHT22;2059;48.538;12.146;2024-01-27T11:20:00;9.20;92.80
4090;DHT22;2059;48.538;12.146;2024-01-27T11:25:07;9.30;91.30
4090;DHT22;2059;48.538;12.146;2024-01-27T11:30:26;8.90;91.00
4090;DHT22;2059;48.538;12.146;2024-01-27T11:35:29;8.80;91.80
4090;DHT22;2059;48.538;12.146;2024-01-27T11:40:31;8.80;91.60
4090;DHT22;2059;48.538;12.146;2024-01-27T11:45:35;9.20;92.10
4090;DHT22;2059;48.538;12.146;2024-01-27T11:50:36;9.70;91.20
4090;DHT22;2059;48.538;12.146;2024-01-27T11:55:38;9.80;90.80
4090;DHT22;2059;48.538;12.146;2024-01-27T12:00:41;9.80;90.00
4090;DHT22;2059;48.538;12.146;2024-01-27T12:05:43;9.50;89.70
4090;DHT22;2059;48.538;12.146;2024-01-27T12:10:45;9.60;89.60
4090;DHT22;2059;48.538;12.146;2024-01-27T12:15:48;9.20;90.00
4090;DHT22;2059;48.538;12.146;2024-01-27T12:20:55;9.10;89.90
4090;DHT22;2059;48.538;12.146;2024-01-27T12:25:57;9.20;90.80
4090;DHT22;2059;48.538;12.146;2024-01-27T12:31:00;9.90;87.80
4090;DHT22;2059;48.538;12.146;2024-01-27T12:36:02;9.30;90.00
4090;DHT22;2059;48.538;12.146;2024-01-27T12:41:04;9.70;89.90
4090;DHT22;2059;48.538;12.146;2024-01-27T12:46:07;10.10;87.50
4090;DHT22;2059;48.538;12.146;2024-01-27T12:51:09;10.20;85.30
4090;DHT22;2059;48.538;12.146;2024-01-27T12:56:11;10.20;85.40
4090;DHT22;2059;48.538;12.146;2024-01-27T13:01:14;10.30;86.20
4090;DHT22;2059;48.538;12.146;2024-01-27T13:06:16;10.40;84.40
4090;DHT22;2059;48.538;12.146;2024-01-27T13:11:20;9.70;85.00
4090;DHT22;2059;48.538;12.146;2024-01-27T13:16:23;9.20;85.50
4090;DHT22;2059;48.538;12.146;2024-01-27T13:21:25;9.60;85.70
4090;DHT22;2059;48.538;12.146;2024-01-27T13:26:27;9.30;85.70
4090;DHT22;2059;48.538;12.146;2024-01-27T13:31:33;9.20;84.30
4090;DHT22;2059;48.538;12.146;2024-01-27T13:36:34;8.90;84.60
4090;DHT22;2059;48.538;12.146;2024-01-27T13:41:36;9.00;85.80
4090;DHT22;2059;48.538;12.146;2024-01-27T13:46:40;8.90;86.80
4090;DHT22;2059;48.538;12.146;2024-01-27T13:51:42;9.30;84.40
4090;DHT22;2059;48.538;12.146;2024-01-27T13:56:44;8.90;84.90
4090;DHT22;2059;48.538;12.146;2024-01-27T14:01:47;9.00;85.80
4090;DHT22;2059;48.538;12.146;2024-01-27T14:06:49;8.80;86.30
4090;DHT22;2059;48.538;12.146;2024-01-27T14:11:50;8.70;84.90
4090;DHT22;2059;48.538;12.146;2024-01-27T14:16:54;8.40;86.20
4090;DHT22;2059;48.538;12.146;2024-01-27T14:21:55;8.30;86.20
4090;DHT22;2059;48.538;12.146;2024-01-27T14:26:57;8.40;86.80
4090;DHT22;2059;48.538;12.146;2024-01-27T14:32:00;8.30;87.30
4090;DHT22;2059;48.538;12.146;2024-01-27T14:37:02;8.30;88.60
4090;DHT22;2059;48.538;12.146;2024-01-27T14:42:05;8.50;87.60
4090;DHT22;2059;48.538;12.146;2024-01-27T14:47:10;7.90;88.70
4090;DHT22;2059;48.538;12.146;2024-01-27T14:52:12;8.00;88.30
4090;DHT22;2059;48.538;12.146;2024-01-27T14:57:14;7.60;89.20
4090;DHT22;2059;48.538;12.146;2024-01-27T15:02:17;7.50;89.80
4090;DHT22;2059;48.538;12.146;2024-01-27T15:07:18;7.70;90.00
4090;DHT22;2059;48.538;12.146;2024-01-27T15:12:20;7.50;90.30
4090;DHT22;2059;48.538;12.146;2024-01-27T15:17:25;7.40;90.70
4090;DHT22;2059;48.538;12.146;2024-01-27T15:22:27;7.60;90.80
4090;DHT22;2059;48.538;12.146;2024-01-27T15:27:29;7.60;90.50
4090;DHT22;2059;48.538;12.146;2024-01-27T15:32:32;7.40;91.00
4090;DHT22;2059;48.538;12.146;2024-01-27T15:37:34;7.40;90.80
4090;DHT22;2059;48.538;12.146;2024-01-27T15:42:35;7.20;91.10
4090;DHT22;2059;48.538;12.146;2024-01-27T15:47:39;7.30;91.20
4090;DHT22;2059;48.538;12.146;2024-01-27T15:52:43;7.20;91.30
4090;DHT22;2059;48.538;12.146;2024-01-27T15:57:44;6.90;91.70
4090;DHT22;2059;48.538;12.146;2024-01-27T16:02:47;7.00;91.90
4090;DHT22;2059;48.538;12.146;2024-01-27T16:07:49;6.80;91.70
4090;DHT22;2059;48.538;12.146;2024-01-27T16:12:51;6.80;91.70
4090;DHT22;2059;48.538;12.146;2024-01-27T16:17:54;6.70;92.00
4090;DHT22;2059;48.538;12.146;2024-01-27T16:22:56;6.60;92.30
4090;DHT22;2059;48.538;12.146;2024-01-27T16:27:57;6.50;93.00
4090;DHT22;2059;48.538;12.146;2024-01-27T16:33:00;6.40;93.60
4090;DHT22;2059;48.538;12.146;2024-01-27T16:38:02;6.40;94.00
4090;DHT22;2059;48.538;12.146;2024-01-27T16:43:04;6.30;94.20
4090;DHT22;2059;48.538;12.146;2024-01-27T16:48:07;6.10;94.90
4090;DHT22;2059;48.538;12.146;2024-01-27T16:53:09;6.00;95.00
4090;DHT22;2059;48.538;12.146;2024-01-27T16:58:11;5.80;95.00
4090;DHT22;2059;48.538;12.146;2024-01-27T17:03:14;5.50;95.50
4090;DHT22;2059;48.538;12.146;2024-01-27T17:08:16;5.50;95.80
4090;DHT22;2059;48.538;12.146;2024-01-27T17:13:17;5.40;95.90
4090;DHT22;2059;48.538;12.146;2024-01-27T17:18:21;5.30;96.30
4090;DHT22;2059;48.538;12.146;2024-01-27T17:23:24;5.20;96.70
4090;DHT22;2059;48.538;12.146;2024-01-27T17:28:30;5.10;97.00
4090;DHT22;2059;48.538;12.146;2024-01-27T17:33:33;4.90;97.40
4090;DHT22;2059;48.538;12.146;2024-01-27T17:38:35;4.90;97.60
4090;DHT22;2059;48.538;12.146;2024-01-27T17:43:37;4.80;97.50
4090;DHT22;2059;48.538;12.146;2024-01-27T17:48:40;4.80;98.20
4090;DHT22;2059;48.538;12.146;2024-01-27T17:53:42;4.40;98.50
4090;DHT22;2059;48.538;12.146;2024-01-27T17:58:44;4.20;99.30
4090;DHT22;2059;48.538;12.146;2024-01-27T18:03:48;3.80;99.80
4090;DHT22;2059;48.538;12.146;2024-01-27T18:08:49;3.60;99.90
4090;DHT22;2059;48.538;12.146;2024-01-27T18:13:51;3.60;99.90
4090;DHT22;2059;48.538;12.146;2024-01-27T18:18:56;3.80;99.90
4090;DHT22;2059;48.538;12.146;2024-01-27T18:23:58;3.70;99.90
4090;DHT22;2059;48.538;12.146;2024-01-27T18:28:59;3.70;99.90
4090;DHT22;2059;48.538;12.146;2024-01-27T18:34:02;3.70;99.90
4090;DHT22;2059;48.538;12.146;2024-01-27T18:39:04;3.70;99.90
4090;DHT22;2059;48.538;12.146;2024-01-27T18:44:06;3.50;99.90
4090;DHT22;2059;48.538;12.146;2024-01-27T18:49:09;3.20;99.90
4090;DHT22;2059;48.538;12.146;2024-01-27T18:54:14;2.90;99.90
4090;DHT22;2059;48.538;12.146;2024-01-27T18:59:17;2.80;99.90
4090;DHT22;2059;48.538;12.146;2024-01-27T19:04:20;2.60;99.90
4090;DHT22;2059;48.538;12.146;2024-01-27T19:09:22;2.60;99.90
4090;DHT22;2059;48.538;12.146;2024-01-27T19:14:24;2.80;99.90
4090;DHT22;2059;48.538;12.146;2024-01-27T19:19:27;2.60;99.90
4090;DHT22;2059;48.538;12.146;2024-01-27T19:24:28;2.70;99.90
4090;DHT22;2059;48.538;12.146;2024-01-27T19:29:30;3.10;99.90
4090;DHT22;2059;48.538;12.146;2024-01-27T19:34:34;2.90;99.90
4090;DHT22;2059;48.538;12.146;2024-01-27T19:39:36;2.60;99.90
4090;DHT22;2059;48.538;12.146;2024-01-27T19:44:38;2.40;99.90
4090;DHT22;2059;48.538;12.146;2024-01-27T19:49:41;2.40;99.90
4090;DHT22;2059;48.538;12.146;2024-01-27T19:54:42;2.30;99.90
4090;DHT22;2059;48.538;12.146;2024-01-27T19:59:44;2.50;99.90
4090;DHT22;2059;48.538;12.146;2024-01-27T20:04:47;2.70;99.90
4090;DHT22;2059;48.538;12.146;2024-01-27T20:09:49;2.70;99.90
4090;DHT22;2059;48.538;12.146;2024-01-27T20:14:51;2.80;99.90
4090;DHT22;2059;48.538;12.146;2024-01-27T20:19:54;2.40;99.90
4090;DHT22;2059;48.538;12.146;2024-01-27T20:24:57;2.20;99.90
4090;DHT22;2059;48.538;12.146;2024-01-27T20:29:59;2.30;99.90
4090;DHT22;2059;48.538;12.146;2024-01-27T20:35:02;2.20;99.90
4090;DHT22;2059;48.538;12.146;2024-01-27T20:40:06;2.20;99.90
4090;DHT22;2059;48.538;12.146;2024-01-27T20:45:08;1.70;99.90
4090;DHT22;2059;48.538;12.146;2024-01-27T20:50:11;1.70;99.90
4090;DHT22;2059;48.538;12.146;2024-01-27T20:55:13;1.40;99.90
4090;DHT22;2059;48.538;12.146;2024-01-27T21:00:15;1.30;99.90
4090;DHT22;2059;48.538;12.146;2024-01-27T21:05:18;1.40;99.90
4090;DHT22;2059;48.538;12.146;2024-01-27T21:10:20;1.50;99.90
4090;DHT22;2059;48.538;12.146;2024-01-27T21:15:22;1.60;99.90
4090;DHT22;2059;48.538;12.146;2024-01-27T21:20:25;1.60;99.90
4090;DHT22;2059;48.538;12.146;2024-01-27T21:25:27;1.70;99.90
4090;DHT22;2059;48.538;12.146;2024-01-27T21:30:28;1.90;99.90
4090;DHT22;2059;48.538;12.146;2024-01-27T21:35:33;2.00;99.90
4090;DHT22;2059;48.538;12.146;2024-01-27T21:40:34;2.00;99.90
4090;DHT22;2059;48.538;12.146;2024-01-27T21:45:37;2.00;99.90
4090;DHT22;2059;48.538;12.146;2024-01-27T21:50:41;1.50;99.90
4090;DHT22;2059;48.538;12.146;2024-01-27T21:55:43;1.70;99.90
4090;DHT22;2059;48.538;12.146;2024-01-27T22:00:45;1.50;99.90
4090;DHT22;2059;48.538;12.146;2024-01-27T22:05:50;1.50;99.90
4090;DHT22;2059;48.538;12.146;2024-01-27T22:10:52;1.70;99.90
4090;DHT22;2059;48.538;12.146;2024-01-27T22:15:54;1.60;99.90
4090;DHT22;2059;48.538;12.146;2024-01-27T22:20:57;1.60;99.90
4090;DHT22;2059;48.538;12.146;2024-01-27T22:26:00;1.60;99.90
4090;DHT22;2059;48.538;12.146;2024-01-27T22:31:01;1.50;99.90
4090;DHT22;2059;48.538;12.146;2024-01-27T22:36:06;1.60;99.90
4090;DHT22;2059;48.538;12.146;2024-01-27T22:41:10;1.60;99.90
4090;DHT22;2059;48.538;12.146;2024-01-27T22:46:12;1.50;99.90
4090;DHT22;2059;48.538;12.146;2024-01-27T22:51:15;1.30;99.90
4090;DHT22;2059;48.538;12.146;2024-01-27T22:56:17;1.50;99.90
4090;DHT22;2059;48.538;12.146;2024-01-27T23:01:20;1.30;99.90
4090;DHT22;2059;48.538;12.146;2024-01-27T23:06:23;1.30;99.90
4090;DHT22;2059;48.538;12.146;2024-01-27T23:11:25;1.20;99.90
4090;DHT22;2059;48.538;12.146;2024-01-27T23:16:28;1.00;99.90
4090;DHT22;2059;48.538;12.146;2024-01-27T23:21:32;1.40;99.90
4090;DHT22;2059;48.538;12.146;2024-01-27T23:26:33;1.40;99.90
4090;DHT22;2059;48.538;12.146;2024-01-27T23:31:35;1.30;99.90
4090;DHT22;2059;48.538;12.146;2024-01-27T23:36:38;1.20;99.90
4090;DHT22;2059;48.538;12.146;2024-01-27T23:41:40;1.20;99.90
4090;DHT22;2059;48.538;12.146;2024-01-27T23:46:42;1.30;99.90
4090;DHT22;2059;48.538;12.146;2024-01-27T23:51:45;1.00;99.90
4090;DHT22;2059;48.538;12.146;2024-01-27T23:56:47;1.10;99.90
